シンガポール/チャンギ の空港の天気 - METARとTAF

シンガポール・チャンギ国際空港 ( WSSS / SIN ) - シンガポール Changi
飛行場実況気象(Metar)
観測時間05/27 08:00 SGT (05/27 00:00 UTC)
風向・風速北 1m/s
視程10km以上
天気現象
少しの雲 雲底高度 490m
全天の8割程度の雲 雲底高度 4880m
気温26℃
湿度94%
気圧1011hPa
METARWSSS 270000Z 35002KT 9999 FEW016 BKN160 26/25 Q1011 NOSIG
過去の天気等 Google飛行場航空写真 Wunderground天気予報

過去48時間のMETAR

飛行場予報(TAF)
発表時間: 5/27 07:00 SGT (5/26 23:00 UTC)
予報対象時間: 27日8時 SGT ~ 28日14時 SGT
風向・風速南南西 4m/s
視程10km以上
少しの雲 雲底高度 460m
全天の4割程度の雲 雲底高度 610m
27日12時 SGT ~ 27日15時 SGT に一時的に
視程3000m
天気現象雷雨
少しの積乱雲 雲底高度 370m
全天の8割程度の雲 雲底高度 460m
TAF WSSS 262300Z 2700/2806 21007KT 9999 FEW015 SCT020
TEMPO 2704/2707 3000 TSRA FEW012CB BKN015